Crawford, Oklahoma
Current Conditions -  °F | °C
As of 4:53 AM on Friday 31 Oct 2014 (Local Time) from KGAG Reporting Station
Clear Clear  
Wind Chill: 39°   Ceiling: Unl
Heat Index: 43°   Visibility: 10mi
Dew Point: 34°   Wind: 7mph
Humidity: 71%   Direction: 20°NNE
Pressure: 30.39"   Gusts: NA
Location:  35.83°N, 99.8°W
Report Text: KGAG 310953Z AUTO 02006KT 10SM CLR 06/01 A3039 RMK AO2 SLP282 T00610011
Loading
Personal Weather Stations






























Interactive Weather Map New forecast layout! Learn more

10-Day Weather Forecast

Advertisements
Track Severe Weather on mobile